sensor_id;sensor_type;location;lat;lon;timestamp;pressure;altitude;pressure_sealevel;temperature;humidity
6938;BME280;40040;42.706;23.372;2023-03-02T00:00:37;145488.06;;;5.30;100.00
6938;BME280;40040;42.706;23.372;2023-03-02T00:03:08;145529.81;;;5.47;100.00
6938;BME280;40040;42.706;23.372;2023-03-02T00:05:37;145511.44;;;5.40;100.00
6938;BME280;40040;42.706;23.372;2023-03-02T00:08:07;145521.28;;;5.44;100.00
6938;BME280;40040;42.706;23.372;2023-03-02T00:10:35;145484.38;;;5.29;100.00
6938;BME280;40040;42.706;23.372;2023-03-02T00:13:03;145501.59;;;5.36;100.00
6938;BME280;40040;42.706;23.372;2023-03-02T00:15:30;145497.91;;;5.34;100.00
6938;BME280;40040;42.706;23.372;2023-03-02T00:17:57;145479.47;;;5.27;100.00
6938;BME280;40040;42.706;23.372;2023-03-02T00:20:25;145489.31;;;5.31;100.00
6938;BME280;40040;42.706;23.372;2023-03-02T00:22:52;145478.25;;;5.26;100.00
6938;BME280;40040;42.706;23.372;2023-03-02T00:25:19;145474.53;;;5.25;100.00
6938;BME280;40040;42.706;23.372;2023-03-02T00:27:46;145409.47;;;4.98;100.00
6938;BME280;40040;42.706;23.372;2023-03-02T00:30:15;145465.94;;;5.21;100.00
6938;BME280;40040;42.706;23.372;2023-03-02T00:32:42;145463.50;;;5.20;100.00
6938;BME280;40040;42.706;23.372;2023-03-02T00:35:10;145462.25;;;5.20;100.00
6938;BME280;40040;42.706;23.372;2023-03-02T00:37:38;145467.19;;;5.22;100.00
6938;BME280;40040;42.706;23.372;2023-03-02T00:40:07;145440.19;;;5.11;100.00
6938;BME280;40040;42.706;23.372;2023-03-02T00:42:35;145453.66;;;5.16;100.00
6938;BME280;40040;42.706;23.372;2023-03-02T00:45:03;145479.47;;;5.27;100.00
6938;BME280;40040;42.706;23.372;2023-03-02T00:47:32;145473.34;;;5.24;100.00
6938;BME280;40040;42.706;23.372;2023-03-02T00:49:59;145469.66;;;5.23;100.00
6938;BME280;40040;42.706;23.372;2023-03-02T00:52:26;145421.75;;;5.03;100.00
6938;BME280;40040;42.706;23.372;2023-03-02T00:54:55;145454.91;;;5.17;100.00
6938;BME280;40040;42.706;23.372;2023-03-02T00:57:22;145458.59;;;5.18;100.00
6938;BME280;40040;42.706;23.372;2023-03-02T00:59:49;145457.34;;;5.18;100.00
6938;BME280;40040;42.706;23.372;2023-03-02T01:02:16;145467.19;;;5.22;100.00
6938;BME280;40040;42.706;23.372;2023-03-02T01:04:46;145437.72;;;5.10;100.00
6938;BME280;40040;42.706;23.372;2023-03-02T01:07:15;145467.19;;;5.22;100.00
6938;BME280;40040;42.706;23.372;2023-03-02T01:09:43;145451.22;;;5.15;100.00
6938;BME280;40040;42.706;23.372;2023-03-02T01:12:12;145478.25;;;5.26;100.00
6938;BME280;40040;42.706;23.372;2023-03-02T01:14:41;145464.75;;;5.21;100.00
6938;BME280;40040;42.706;23.372;2023-03-02T01:17:09;145384.88;;;4.88;100.00
6938;BME280;40040;42.706;23.372;2023-03-02T01:19:36;145454.91;;;5.17;100.00
6938;BME280;40040;42.706;23.372;2023-03-02T01:22:04;145451.22;;;5.15;100.00
6938;BME280;40040;42.706;23.372;2023-03-02T01:24:31;145440.19;;;5.11;100.00
6938;BME280;40040;42.706;23.372;2023-03-02T01:26:58;145451.22;;;5.15;100.00
6938;BME280;40040;42.706;23.372;2023-03-02T01:29:26;145447.53;;;5.14;100.00
6938;BME280;40040;42.706;23.372;2023-03-02T01:31:53;145445.06;;;5.13;100.00
6938;BME280;40040;42.706;23.372;2023-03-02T01:34:20;145447.53;;;5.14;100.00
6938;BME280;40040;42.706;23.372;2023-03-02T01:36:47;145441.38;;;5.11;100.00
6938;BME280;40040;42.706;23.372;2023-03-02T01:39:14;145447.53;;;5.14;100.00
6938;BME280;40040;42.706;23.372;2023-03-02T01:41:41;145431.59;;;5.07;100.00
6938;BME280;40040;42.706;23.372;2023-03-02T01:44:38;145429.13;;;5.06;100.00
6938;BME280;40040;42.706;23.372;2023-03-02T01:47:10;145413.16;;;5.00;100.00
6938;BME280;40040;42.706;23.372;2023-03-02T01:49:41;145427.88;;;5.06;100.00
6938;BME280;40040;42.706;23.372;2023-03-02T01:52:10;145432.78;;;5.08;100.00
6938;BME280;40040;42.706;23.372;2023-03-02T01:54:37;145430.34;;;5.07;100.00
6938;BME280;40040;42.706;23.372;2023-03-02T01:57:05;145427.88;;;5.06;100.00
6938;BME280;40040;42.706;23.372;2023-03-02T01:59:34;145437.72;;;5.10;100.00
6938;BME280;40040;42.706;23.372;2023-03-02T02:02:05;145421.75;;;5.03;100.00
6938;BME280;40040;42.706;23.372;2023-03-02T02:04:37;145457.34;;;5.18;100.00
6938;BME280;40040;42.706;23.372;2023-03-02T02:07:07;145426.69;;;5.05;100.00
6938;BME280;40040;42.706;23.372;2023-03-02T02:09:38;145344.38;;;4.72;100.00
6938;BME280;40040;42.706;23.372;2023-03-02T02:12:10;145373.84;;;4.84;100.00
6938;BME280;40040;42.706;23.372;2023-03-02T02:14:38;145425.44;;;5.05;100.00
6938;BME280;40040;42.706;23.372;2023-03-02T02:17:07;145400.88;;;4.95;100.00
6938;BME280;40040;42.706;23.372;2023-03-02T02:19:46;145368.94;;;4.82;100.00
6938;BME280;40040;42.706;23.372;2023-03-02T02:22:21;145414.41;;;5.00;100.00
6938;BME280;40040;42.706;23.372;2023-03-02T02:24:54;145395.97;;;4.93;100.00
6938;BME280;40040;42.706;23.372;2023-03-02T02:27:24;145387.38;;;4.89;100.00
6938;BME280;40040;42.706;23.372;2023-03-02T02:30:00;145382.44;;;4.87;100.00
6938;BME280;40040;42.706;23.372;2023-03-02T02:32:31;145381.19;;;4.87;100.00
6938;BME280;40040;42.706;23.372;2023-03-02T02:35:01;145341.94;;;4.71;100.00
6938;BME280;40040;42.706;23.372;2023-03-02T02:37:32;145361.56;;;4.79;100.00
6938;BME280;40040;42.706;23.372;2023-03-02T02:40:02;145387.38;;;4.89;100.00
6938;BME280;40040;42.706;23.372;2023-03-02T02:42:37;145398.41;;;4.94;100.00
6938;BME280;40040;42.706;23.372;2023-03-02T02:45:17;145402.06;;;4.95;100.00
6938;BME280;40040;42.706;23.372;2023-03-02T02:47:45;145405.81;;;4.97;100.00
6938;BME280;40040;42.706;23.372;2023-03-02T02:50:16;145394.72;;;4.92;100.00
6938;BME280;40040;42.706;23.372;2023-03-02T02:52:46;145414.41;;;5.00;100.00
6938;BME280;40040;42.706;23.372;2023-03-02T02:55:20;145372.59;;;4.83;100.00
6938;BME280;40040;42.706;23.372;2023-03-02T02:57:52;145394.72;;;4.92;100.00
6938;BME280;40040;42.706;23.372;2023-03-02T03:00:21;145432.78;;;5.08;100.00
6938;BME280;40040;42.706;23.372;2023-03-02T03:02:52;145425.44;;;5.05;100.00
6938;BME280;40040;42.706;23.372;2023-03-02T03:05:23;145420.50;;;5.03;100.00
6938;BME280;40040;42.706;23.372;2023-03-02T03:07:50;145367.72;;;4.81;100.00
6938;BME280;40040;42.706;23.372;2023-03-02T03:10:22;145364.00;;;4.80;100.00
6938;BME280;40040;42.706;23.372;2023-03-02T03:12:54;145415.59;;;5.01;100.00
6938;BME280;40040;42.706;23.372;2023-03-02T03:15:21;145425.44;;;5.05;100.00
6938;BME280;40040;42.706;23.372;2023-03-02T03:17:52;145430.34;;;5.07;100.00
6938;BME280;40040;42.706;23.372;2023-03-02T03:20:21;145418.06;;;5.02;100.00
6938;BME280;40040;42.706;23.372;2023-03-02T03:22:49;145414.41;;;5.00;100.00
6938;BME280;40040;42.706;23.372;2023-03-02T03:25:18;145346.81;;;4.73;100.00
6938;BME280;40040;42.706;23.372;2023-03-02T03:27:45;145386.13;;;4.89;100.00
6938;BME280;40040;42.706;23.372;2023-03-02T03:30:13;145449.97;;;5.15;100.00
6938;BME280;40040;42.706;23.372;2023-03-02T03:32:41;145436.47;;;5.09;100.00
6938;BME280;40040;42.706;23.372;2023-03-02T03:35:08;145443.88;;;5.12;100.00
6938;BME280;40040;42.706;23.372;2023-03-02T03:37:38;145415.59;;;5.01;100.00
6938;BME280;40040;42.706;23.372;2023-03-02T03:40:06;145432.78;;;5.08;100.00
6938;BME280;40040;42.706;23.372;2023-03-02T03:42:35;145415.59;;;5.01;100.00
6938;BME280;40040;42.706;23.372;2023-03-02T03:45:02;145420.50;;;5.03;100.00
6938;BME280;40040;42.706;23.372;2023-03-02T03:47:31;145393.47;;;4.92;100.00
6938;BME280;40040;42.706;23.372;2023-03-02T03:49:58;145440.19;;;5.11;100.00
6938;BME280;40040;42.706;23.372;2023-03-02T03:52:25;145410.66;;;4.99;100.00
6938;BME280;40040;42.706;23.372;2023-03-02T03:54:56;145423.00;;;5.04;100.00
6938;BME280;40040;42.706;23.372;2023-03-02T03:57:23;145335.78;;;4.68;100.00
6938;BME280;40040;42.706;23.372;2023-03-02T03:59:49;145400.88;;;4.95;100.00
6938;BME280;40040;42.706;23.372;2023-03-02T04:02:17;145383.69;;;4.88;100.00
6938;BME280;40040;42.706;23.372;2023-03-02T04:04:45;145383.69;;;4.88;100.00
6938;BME280;40040;42.706;23.372;2023-03-02T04:07:13;145337.03;;;4.69;100.00
6938;BME280;40040;42.706;23.372;2023-03-02T04:09:40;145378.78;;;4.86;100.00
6938;BME280;40040;42.706;23.372;2023-03-02T04:12:07;145368.94;;;4.82;100.00
6938;BME280;40040;42.706;23.372;2023-03-02T04:14:35;145366.50;;;4.81;100.00
6938;BME280;40040;42.706;23.372;2023-03-02T04:17:02;145364.00;;;4.80;100.00
6938;BME280;40040;42.706;23.372;2023-03-02T04:19:30;145366.50;;;4.81;100.00
6938;BME280;40040;42.706;23.372;2023-03-02T04:21:58;145372.59;;;4.83;100.00
6938;BME280;40040;42.706;23.372;2023-03-02T04:24:28;145368.94;;;4.82;100.00
6938;BME280;40040;42.706;23.372;2023-03-02T04:26:57;145361.56;;;4.79;100.00
6938;BME280;40040;42.706;23.372;2023-03-02T04:29:24;145359.13;;;4.78;100.00
6938;BME280;40040;42.706;23.372;2023-03-02T04:31:51;145368.94;;;4.82;100.00
6938;BME280;40040;42.706;23.372;2023-03-02T04:34:18;145386.13;;;4.89;100.00
6938;BME280;40040;42.706;23.372;2023-03-02T04:36:45;145383.69;;;4.88;100.00
6938;BME280;40040;42.706;23.372;2023-03-02T04:39:15;145381.19;;;4.87;100.00
6938;BME280;40040;42.706;23.372;2023-03-02T04:41:42;145383.69;;;4.88;100.00
6938;BME280;40040;42.706;23.372;2023-03-02T04:44:09;145384.88;;;4.88;100.00
6938;BME280;40040;42.706;23.372;2023-03-02T04:46:36;145376.28;;;4.85;100.00
6938;BME280;40040;42.706;23.372;2023-03-02T04:49:03;145368.94;;;4.82;100.00
6938;BME280;40040;42.706;23.372;2023-03-02T04:51:32;145372.59;;;4.83;100.00
6938;BME280;40040;42.706;23.372;2023-03-02T04:54:01;145381.19;;;4.87;100.00
6938;BME280;40040;42.706;23.372;2023-03-02T04:56:30;145371.41;;;4.83;100.00
6938;BME280;40040;42.706;23.372;2023-03-02T04:58:57;145372.59;;;4.83;100.00
6938;BME280;40040;42.706;23.372;2023-03-02T05:01:25;145344.38;;;4.72;100.00
6938;BME280;40040;42.706;23.372;2023-03-02T05:03:52;145359.13;;;4.78;100.00
6938;BME280;40040;42.706;23.372;2023-03-02T05:06:20;145378.78;;;4.86;100.00
6938;BME280;40040;42.706;23.372;2023-03-02T05:08:49;145383.69;;;4.88;100.00
6938;BME280;40040;42.706;23.372;2023-03-02T05:11:16;145366.50;;;4.81;100.00
6938;BME280;40040;42.706;23.372;2023-03-02T05:13:49;145378.78;;;4.86;100.00
6938;BME280;40040;42.706;23.372;2023-03-02T05:16:16;145313.69;;;4.59;100.00
6938;BME280;40040;42.706;23.372;2023-03-02T05:18:44;145366.50;;;4.81;100.00
6938;BME280;40040;42.706;23.372;2023-03-02T05:21:11;145380.00;;;4.86;100.00
6938;BME280;40040;42.706;23.372;2023-03-02T05:23:39;145378.78;;;4.86;100.00
6938;BME280;40040;42.706;23.372;2023-03-02T05:26:06;145376.28;;;4.85;100.00
6938;BME280;40040;42.706;23.372;2023-03-02T05:28:34;145335.78;;;4.68;100.00
6938;BME280;40040;42.706;23.372;2023-03-02T05:31:02;145380.00;;;4.86;100.00
6938;BME280;40040;42.706;23.372;2023-03-02T05:33:29;145381.19;;;4.87;100.00
6938;BME280;40040;42.706;23.372;2023-03-02T05:35:56;145365.25;;;4.80;100.00
6938;BME280;40040;42.706;23.372;2023-03-02T05:38:23;145325.94;;;4.64;100.00
6938;BME280;40040;42.706;23.372;2023-03-02T05:40:51;145400.88;;;4.95;100.00
6938;BME280;40040;42.706;23.372;2023-03-02T05:43:20;145410.66;;;4.99;100.00
6938;BME280;40040;42.706;23.372;2023-03-02T05:45:47;145418.06;;;5.02;100.00
6938;BME280;40040;42.706;23.372;2023-03-02T05:48:15;145429.13;;;5.06;100.00
6938;BME280;40040;42.706;23.372;2023-03-02T05:50:42;145413.16;;;5.00;100.00
6938;BME280;40040;42.706;23.372;2023-03-02T05:53:09;145448.78;;;5.14;100.00
6938;BME280;40040;42.706;23.372;2023-03-02T05:55:36;145436.47;;;5.09;100.00
6938;BME280;40040;42.706;23.372;2023-03-02T05:58:03;145376.28;;;4.85;100.00
6938;BME280;40040;42.706;23.372;2023-03-02T06:00:30;145362.81;;;4.79;100.00
6938;BME280;40040;42.706;23.372;2023-03-02T06:02:57;145458.59;;;5.18;100.00
6938;BME280;40040;42.706;23.372;2023-03-02T06:05:25;145459.81;;;5.19;100.00
6938;BME280;40040;42.706;23.372;2023-03-02T06:07:52;145410.66;;;4.99;100.00
6938;BME280;40040;42.706;23.372;2023-03-02T06:10:19;145483.13;;;5.28;100.00
6938;BME280;40040;42.706;23.372;2023-03-02T06:12:46;145484.38;;;5.29;100.00
6938;BME280;40040;42.706;23.372;2023-03-02T06:15:13;145415.59;;;5.01;100.00
6938;BME280;40040;42.706;23.372;2023-03-02T06:17:40;145491.75;;;5.32;100.00
6938;BME280;40040;42.706;23.372;2023-03-02T06:20:08;145483.13;;;5.28;100.00
6938;BME280;40040;42.706;23.372;2023-03-02T06:22:38;145377.53;;;4.85;100.00
6938;BME280;40040;42.706;23.372;2023-03-02T06:25:07;145504.06;;;5.37;100.00
6938;BME280;40040;42.706;23.372;2023-03-02T06:27:35;145408.25;;;4.98;100.00
6938;BME280;40040;42.706;23.372;2023-03-02T06:30:02;145479.47;;;5.27;100.00
6938;BME280;40040;42.706;23.372;2023-03-02T06:32:30;145524.94;;;5.45;100.00
6938;BME280;40040;42.706;23.372;2023-03-02T06:34:58;145540.91;;;5.52;100.00
6938;BME280;40040;42.706;23.372;2023-03-02T06:37:25;145553.19;;;5.57;100.00
6938;BME280;40040;42.706;23.372;2023-03-02T06:39:55;145537.22;;;5.50;100.00
6938;BME280;40040;42.706;23.372;2023-03-02T06:42:23;145538.44;;;5.51;100.00
6938;BME280;40040;42.706;23.372;2023-03-02T06:44:50;145540.91;;;5.52;100.00
6938;BME280;40040;42.706;23.372;2023-03-02T06:47:19;145580.25;;;5.68;100.00
6938;BME280;40040;42.706;23.372;2023-03-02T06:49:46;145572.84;;;5.65;100.00
6938;BME280;40040;42.706;23.372;2023-03-02T06:52:13;145624.50;;;5.86;100.00
6938;BME280;40040;42.706;23.372;2023-03-02T06:54:40;145592.53;;;5.73;100.00
6938;BME280;40040;42.706;23.372;2023-03-02T06:57:08;145582.69;;;5.69;100.00
6938;BME280;40040;42.706;23.372;2023-03-02T06:59:35;145644.19;;;5.94;100.00
6938;BME280;40040;42.706;23.372;2023-03-02T07:02:02;145633.09;;;5.90;100.00
6938;BME280;40040;42.706;23.372;2023-03-02T07:04:29;145623.31;;;5.86;100.00
6938;BME280;40040;42.706;23.372;2023-03-02T07:06:56;145614.66;;;5.82;100.00
6938;BME280;40040;42.706;23.372;2023-03-02T07:09:23;145554.44;;;5.57;100.00
6938;BME280;40040;42.706;23.372;2023-03-02T07:11:50;145614.66;;;5.82;100.00
6938;BME280;40040;42.706;23.372;2023-03-02T07:14:18;145602.31;;;5.77;100.00
6938;BME280;40040;42.706;23.372;2023-03-02T07:16:45;145592.53;;;5.73;100.00
6938;BME280;40040;42.706;23.372;2023-03-02T07:19:12;145593.75;;;5.73;100.00
6938;BME280;40040;42.706;23.372;2023-03-02T07:21:39;145599.88;;;5.76;100.00
6938;BME280;40040;42.706;23.372;2023-03-02T07:24:06;145563.03;;;5.61;100.00
6938;BME280;40040;42.706;23.372;2023-03-02T07:26:33;145631.91;;;5.89;100.00
6938;BME280;40040;42.706;23.372;2023-03-02T07:29:00;145618.38;;;5.84;100.00
6938;BME280;40040;42.706;23.372;2023-03-02T07:31:28;145651.56;;;5.97;100.00
6938;BME280;40040;42.706;23.372;2023-03-02T07:33:55;145654.00;;;5.98;100.00
6938;BME280;40040;42.706;23.372;2023-03-02T07:36:22;145660.16;;;6.01;100.00
6938;BME280;40040;42.706;23.372;2023-03-02T07:38:49;145667.53;;;6.04;100.00
6938;BME280;40040;42.706;23.372;2023-03-02T07:41:16;145588.84;;;5.71;100.00
6938;BME280;40040;42.706;23.372;2023-03-02T07:43:43;145674.88;;;6.07;100.00
6938;BME280;40040;42.706;23.372;2023-03-02T07:46:10;145639.28;;;5.92;100.00
6938;BME280;40040;42.706;23.372;2023-03-02T07:48:40;145687.22;;;6.12;100.00
6938;BME280;40040;42.706;23.372;2023-03-02T07:51:07;145725.31;;;6.27;100.00
6938;BME280;40040;42.706;23.372;2023-03-02T07:53:34;145725.31;;;6.27;100.00
6938;BME280;40040;42.706;23.372;2023-03-02T07:56:05;145740.06;;;6.33;100.00
6938;BME280;40040;42.706;23.372;2023-03-02T07:58:32;145716.72;;;6.24;100.00
6938;BME280;40040;42.706;23.372;2023-03-02T08:00:59;145727.78;;;6.28;100.00
6938;BME280;40040;42.706;23.372;2023-03-02T08:03:27;145735.13;;;6.31;100.00
6938;BME280;40040;42.706;23.372;2023-03-02T08:05:56;145724.09;;;6.27;100.00
6938;BME280;40040;42.706;23.372;2023-03-02T08:08:22;145710.56;;;6.21;100.00
6938;BME280;40040;42.706;23.372;2023-03-02T08:10:49;145710.56;;;6.21;100.00
6938;BME280;40040;42.706;23.372;2023-03-02T08:13:16;145705.63;;;6.19;100.00
6938;BME280;40040;42.706;23.372;2023-03-02T08:15:43;145652.81;;;5.98;100.00
6938;BME280;40040;42.706;23.372;2023-03-02T08:18:10;145714.22;;;6.23;100.00
6938;BME280;40040;42.706;23.372;2023-03-02T08:20:37;145704.44;;;6.19;100.00
6938;BME280;40040;42.706;23.372;2023-03-02T08:23:05;145704.44;;;6.19;100.00
6938;BME280;40040;42.706;23.372;2023-03-02T08:25:32;145710.56;;;6.21;100.00
6938;BME280;40040;42.706;23.372;2023-03-02T08:27:59;145694.59;;;6.15;100.00
6938;BME280;40040;42.706;23.372;2023-03-02T08:30:25;145705.63;;;6.19;100.00
6938;BME280;40040;42.706;23.372;2023-03-02T08:32:52;145715.47;;;6.23;100.00
6938;BME280;40040;42.706;23.372;2023-03-02T08:35:19;145708.13;;;6.20;100.00
6938;BME280;40040;42.706;23.372;2023-03-02T08:37:47;145727.78;;;6.28;100.00
6938;BME280;40040;42.706;23.372;2023-03-02T08:40:15;145735.13;;;6.31;100.00
6938;BME280;40040;42.706;23.372;2023-03-02T08:42:42;145715.47;;;6.23;100.00
6938;BME280;40040;42.706;23.372;2023-03-02T08:45:09;145713.03;;;6.22;100.00
6938;BME280;40040;42.706;23.372;2023-03-02T08:47:36;145724.09;;;6.27;100.00
6938;BME280;40040;42.706;23.372;2023-03-02T08:50:04;145678.63;;;6.08;100.00
6938;BME280;40040;42.706;23.372;2023-03-02T08:52:31;145660.16;;;6.01;100.00
6938;BME280;40040;42.706;23.372;2023-03-02T08:54:59;145713.03;;;6.22;100.00
6938;BME280;40040;42.706;23.372;2023-03-02T08:57:27;145654.00;;;5.98;100.00
6938;BME280;40040;42.706;23.372;2023-03-02T08:59:54;145668.78;;;6.04;100.00
6938;BME280;40040;42.706;23.372;2023-03-02T09:02:21;145619.59;;;5.84;100.00
6938;BME280;40040;42.706;23.372;2023-03-02T09:04:47;145625.75;;;5.87;100.00
6938;BME280;40040;42.706;23.372;2023-03-02T09:07:14;145747.41;;;6.36;100.00
6938;BME280;40040;42.706;23.372;2023-03-02T09:09:41;145767.13;;;6.44;100.00
6938;BME280;40040;42.706;23.372;2023-03-02T09:12:08;145722.84;;;6.26;100.00
6938;BME280;40040;42.706;23.372;2023-03-02T09:14:37;145760.94;;;6.42;100.00
6938;BME280;40040;42.706;23.372;2023-03-02T09:17:03;145774.50;;;6.47;100.00
6938;BME280;40040;42.706;23.372;2023-03-02T09:19:31;145683.50;;;6.10;100.00
6938;BME280;40040;42.706;23.372;2023-03-02T09:22:06;145756.03;;;6.40;100.00
6938;BME280;40040;42.706;23.372;2023-03-02T09:24:33;145770.81;;;6.46;100.00
6938;BME280;40040;42.706;23.372;2023-03-02T09:27:00;145758.50;;;6.41;100.00
6938;BME280;40040;42.706;23.372;2023-03-02T09:29:27;145683.50;;;6.10;100.00
6938;BME280;40040;42.706;23.372;2023-03-02T09:31:55;145752.34;;;6.38;100.00
6938;BME280;40040;42.706;23.372;2023-03-02T09:34:22;145733.94;;;6.31;100.00
6938;BME280;40040;42.706;23.372;2023-03-02T09:36:49;145764.63;;;6.43;100.00
6938;BME280;40040;42.706;23.372;2023-03-02T09:39:16;145764.63;;;6.43;100.00
6938;BME280;40040;42.706;23.372;2023-03-02T09:42:17;145764.63;;;6.43;100.00
6938;BME280;40040;42.706;23.372;2023-03-02T09:45:00;145756.03;;;6.40;100.00
6938;BME280;40040;42.706;23.372;2023-03-02T09:47:35;145774.50;;;6.47;100.00
6938;BME280;40040;42.706;23.372;2023-03-02T09:50:11;145783.09;;;6.51;100.00
6938;BME280;40040;42.706;23.372;2023-03-02T09:52:46;145748.66;;;6.37;100.00
6938;BME280;40040;42.706;23.372;2023-03-02T09:55:18;145749.91;;;6.37;100.00
6938;BME280;40040;42.706;23.372;2023-03-02T09:57:45;145747.41;;;6.36;100.00
6938;BME280;40040;42.706;23.372;2023-03-02T10:00:14;145791.69;;;6.54;100.00
6938;BME280;40040;42.706;23.372;2023-03-02T10:02:46;145715.47;;;6.23;100.00
6938;BME280;40040;42.706;23.372;2023-03-02T10:05:17;145631.91;;;5.89;100.00
6938;BME280;40040;42.706;23.372;2023-03-02T10:07:48;145747.41;;;6.36;100.00
6938;BME280;40040;42.706;23.372;2023-03-02T10:10:25;145744.97;;;6.35;100.00
6938;BME280;40040;42.706;23.372;2023-03-02T10:13:03;145642.94;;;5.94;100.00
6938;BME280;40040;42.706;23.372;2023-03-02T10:15:36;145757.28;;;6.40;100.00
6938;BME280;40040;42.706;23.372;2023-03-02T10:18:15;145660.16;;;6.01;100.00
6938;BME280;40040;42.706;23.372;2023-03-02T10:20:49;145784.34;;;6.51;100.00
6938;BME280;40040;42.706;23.372;2023-03-02T10:23:27;145784.34;;;6.51;100.00
6938;BME280;40040;42.706;23.372;2023-03-02T10:26:00;145655.25;;;5.99;100.00
6938;BME280;40040;42.706;23.372;2023-03-02T10:28:33;145737.63;;;6.32;100.00
6938;BME280;40040;42.706;23.372;2023-03-02T10:31:07;145801.56;;;6.58;100.00
6938;BME280;40040;42.706;23.372;2023-03-02T10:33:38;145769.56;;;6.45;100.00
6938;BME280;40040;42.706;23.372;2023-03-02T10:36:16;145752.34;;;6.38;100.00
6938;BME280;40040;42.706;23.372;2023-03-02T10:38:44;145726.53;;;6.28;100.00
6938;BME280;40040;42.706;23.372;2023-03-02T10:41:15;145759.75;;;6.41;100.00
6938;BME280;40040;42.706;23.372;2023-03-02T10:43:47;145765.88;;;6.44;100.00
6938;BME280;40040;42.706;23.372;2023-03-02T10:46:15;145765.88;;;6.44;100.00
6938;BME280;40040;42.706;23.372;2023-03-02T10:48:48;145774.50;;;6.47;100.00
6938;BME280;40040;42.706;23.372;2023-03-02T10:51:21;145789.25;;;6.53;100.00
6938;BME280;40040;42.706;23.372;2023-03-02T10:53:48;145770.81;;;6.46;100.00
6938;BME280;40040;42.706;23.372;2023-03-02T10:56:19;145759.75;;;6.41;100.00
6938;BME280;40040;42.706;23.372;2023-03-02T10:58:48;145794.19;;;6.55;100.00
6938;BME280;40040;42.706;23.372;2023-03-02T11:01:16;145795.38;;;6.56;100.00
6938;BME280;40040;42.706;23.372;2023-03-02T11:03:55;145774.50;;;6.47;100.00
6938;BME280;40040;42.706;23.372;2023-03-02T11:06:22;145774.50;;;6.47;100.00
6938;BME280;40040;42.706;23.372;2023-03-02T11:09:00;145791.69;;;6.54;100.00
6938;BME280;40040;42.706;23.372;2023-03-02T11:11:28;145801.56;;;6.58;100.00
6938;BME280;40040;42.706;23.372;2023-03-02T11:14:07;145836.00;;;6.72;100.00
6938;BME280;40040;42.706;23.372;2023-03-02T11:16:34;145801.56;;;6.58;100.00
6938;BME280;40040;42.706;23.372;2023-03-02T11:19:04;145840.94;;;6.74;100.00
6938;BME280;40040;42.706;23.372;2023-03-02T11:21:36;145808.94;;;6.61;100.00
6938;BME280;40040;42.706;23.372;2023-03-02T11:24:11;145769.56;;;6.45;100.00
6938;BME280;40040;42.706;23.372;2023-03-02T11:26:44;145811.41;;;6.62;100.00
6938;BME280;40040;42.706;23.372;2023-03-02T11:29:22;145880.25;;;6.91;100.00
6938;BME280;40040;42.706;23.372;2023-03-02T11:31:54;145874.13;;;6.88;100.00
6938;BME280;40040;42.706;23.372;2023-03-02T11:34:31;145880.25;;;6.91;100.00
6938;BME280;40040;42.706;23.372;2023-03-02T11:37:05;145897.47;;;6.98;100.00
6938;BME280;40040;42.706;23.372;2023-03-02T11:42:29;145946.72;;;7.18;100.00
6938;BME280;40040;42.706;23.372;2023-03-02T11:45:00;145976.22;;;7.30;100.00
6938;BME280;40040;42.706;23.372;2023-03-02T11:47:30;145880.25;;;6.91;100.00
6938;BME280;40040;42.706;23.372;2023-03-02T11:50:02;145989.78;;;7.35;100.00
6938;BME280;40040;42.706;23.372;2023-03-02T11:52:33;145993.47;;;7.37;100.00
6938;BME280;40040;42.706;23.372;2023-03-02T11:55:04;145971.31;;;7.28;100.00
6938;BME280;40040;42.706;23.372;2023-03-02T11:57:40;145933.16;;;7.12;100.00
6938;BME280;40040;42.706;23.372;2023-03-02T12:00:23;145959.00;;;7.23;100.00
6938;BME280;40040;42.706;23.372;2023-03-02T12:03:00;145951.63;;;7.20;100.00
6938;BME280;40040;42.706;23.372;2023-03-02T12:05:31;145965.19;;;7.25;100.00
6938;BME280;40040;42.706;23.372;2023-03-02T12:08:01;145946.72;;;7.18;100.00
6938;BME280;40040;42.706;23.372;2023-03-02T12:10:35;145959.00;;;7.23;100.00
6938;BME280;40040;42.706;23.372;2023-03-02T12:13:13;145934.41;;;7.13;100.00
6938;BME280;40040;42.706;23.372;2023-03-02T12:15:43;145931.94;;;7.12;100.00
6938;BME280;40040;42.706;23.372;2023-03-02T12:21:13;145924.56;;;7.09;100.00
6938;BME280;40040;42.706;23.372;2023-03-02T12:23:54;145890.09;;;6.95;100.00
6938;BME280;40040;42.706;23.372;2023-03-02T12:26:26;145914.69;;;7.05;100.00
6938;BME280;40040;42.706;23.372;2023-03-02T12:29:00;145934.41;;;7.13;100.00
6938;BME280;40040;42.706;23.372;2023-03-02T12:31:41;145943.03;;;7.16;100.00
6938;BME280;40040;42.706;23.372;2023-03-02T12:34:25;145962.69;;;7.24;100.00
6938;BME280;40040;42.706;23.372;2023-03-02T12:36:58;145943.03;;;7.16;100.00
6938;BME280;40040;42.706;23.372;2023-03-02T12:39:38;145935.59;;;7.13;100.00
6938;BME280;40040;42.706;23.372;2023-03-02T12:42:31;145968.88;;;7.27;100.00
6938;BME280;40040;42.706;23.372;2023-03-02T12:45:06;145983.59;;;7.33;100.00
6938;BME280;40040;42.706;23.372;2023-03-02T12:47:40;145963.94;;;7.25;100.00
6938;BME280;40040;42.706;23.372;2023-03-02T12:50:16;145976.22;;;7.30;100.00
6938;BME280;40040;42.706;23.372;2023-03-02T12:52:55;145952.84;;;7.20;100.00
6938;BME280;40040;42.706;23.372;2023-03-02T12:55:23;145941.78;;;7.16;100.00
6938;BME280;40040;42.706;23.372;2023-03-02T12:57:52;145961.44;;;7.24;100.00
6938;BME280;40040;42.706;23.372;2023-03-02T13:00:20;145968.88;;;7.27;100.00
6938;BME280;40040;42.706;23.372;2023-03-02T13:02:50;145997.16;;;7.38;100.00
6938;BME280;40040;42.706;23.372;2023-03-02T13:05:19;145938.09;;;7.14;100.00
6938;BME280;40040;42.706;23.372;2023-03-02T13:07:55;146010.69;;;7.44;100.00